Aérodrome :
LOGIN :

S'inscrire | Disclaimer

   EN    FR    IT 

 










Légende :    VFR   VFR Marginal   IFR   IFR Intensif   IFR Très Intensif
Visi : 
Plafond : 
>= 8 km
>= 3000ft
5 à 8 km
1000 à 3000 ft
1500m à 5 km
500 à 1000 ft
800 à 1500m
200 à 500 ft
< 800m
< 200 ft
Symboles :   Orages  Brouillard  Fortes neiges  Fortes précipitations  Vent > 20 kt
SIGMETs :   Divers  Orages  Givrage  Turbulence  Onde Orograph.  Cendres Volcan.






- Altitude de l'aérodrome : 325 ft
- Code IATA : BES


LFRB - Brest

DERNIER METAR :
  • 260930Z AUTO 20016KT 9999 OVC011 10/09 Q1012 TEMPO 22015G25KT 4000 RA OVC003

METARs EXPIRÉS :
  • 260900Z AUTO 20015KT 9999 BKN008 BKN014 OVC066 10/09 Q1012 TEMPO 22015G25KT 4000 RA OVC003
  • 260830Z AUTO 20013KT 9999 OVC008 10/09 Q1012 TEMPO 22015G25KT 4000 RA OVC003
  • 260800Z AUTO 20014KT 9999 BKN007 OVC012 10/09 Q1012 BECMG OVC010
  • 260730Z AUTO 19013KT 9999 BKN007 OVC012 09/09 Q1012 BECMG OVC010
  • 260700Z AUTO 19010KT 9999 BKN008 OVC014 09/09 Q1013 TEMPO BKN012TCU

TAF AMD TAF LFRB
Valide du 26 à 08h jusqu'au 27 à 12h UTC


260830Z 2608/2712 20012KT 9999 BKN007
TEMPO 2610/2618 22015G25KT 4000 RA OVC003
BECMG 2618/2621 SCT020
TEMPO 2621/2712 SHRA BKN015
ATIS : +33 2 98 32 02 71



MET'MAP, la Météo Aéronautique d'un coup d'oeil ! - Copyright ORBIFLY Décembre 2007 - Disclaimer

ORBIFLY MET'MAP TEAM :

Programmation & Développement : Alexandra Zaïnal
Sur une idée originale de : Baudouin d'Aumeries
Assistance à la programmation : Marc-Olivier Méhu
Soutien technique & logistique : Manuel Goepfert

Contact : metmap@orbifly.com




SOURCES & CREDITS :

   NOAA